sensor_id;sensor_type;location;lat;lon;timestamp;P1;durP1;ratioP1;P2;durP2;ratioP2
21727;SDS011;11026;50.560;17.852;2023-02-11T00:01:31;42.80;;;21.58;;
21727;SDS011;11026;50.560;17.852;2023-02-11T00:04:00;42.72;;;21.88;;
21727;SDS011;11026;50.560;17.852;2023-02-11T00:06:29;40.35;;;21.38;;
21727;SDS011;11026;50.560;17.852;2023-02-11T00:08:59;43.25;;;22.63;;
21727;SDS011;11026;50.560;17.852;2023-02-11T00:11:27;40.05;;;20.42;;
21727;SDS011;11026;50.560;17.852;2023-02-11T00:14:00;40.08;;;21.70;;
21727;SDS011;11026;50.560;17.852;2023-02-11T00:16:31;38.95;;;20.35;;
21727;SDS011;11026;50.560;17.852;2023-02-11T00:18:59;38.92;;;21.30;;
21727;SDS011;11026;50.560;17.852;2023-02-11T00:21:27;37.58;;;20.60;;
21727;SDS011;11026;50.560;17.852;2023-02-11T00:23:55;39.80;;;21.05;;
21727;SDS011;11026;50.560;17.852;2023-02-11T00:26:26;37.55;;;20.17;;
21727;SDS011;11026;50.560;17.852;2023-02-11T00:28:58;42.17;;;21.23;;
21727;SDS011;11026;50.560;17.852;2023-02-11T00:31:26;38.20;;;19.27;;
21727;SDS011;11026;50.560;17.852;2023-02-11T00:33:55;40.72;;;20.98;;
21727;SDS011;11026;50.560;17.852;2023-02-11T00:36:23;38.15;;;20.05;;
21727;SDS011;11026;50.560;17.852;2023-02-11T00:38:53;39.95;;;18.63;;
21727;SDS011;11026;50.560;17.852;2023-02-11T00:41:22;35.42;;;20.38;;
21727;SDS011;11026;50.560;17.852;2023-02-11T00:43:51;35.92;;;21.23;;
21727;SDS011;11026;50.560;17.852;2023-02-11T00:46:20;42.35;;;21.42;;
21727;SDS011;11026;50.560;17.852;2023-02-11T00:48:48;42.63;;;22.75;;
21727;SDS011;11026;50.560;17.852;2023-02-11T00:51:17;45.20;;;24.13;;
21727;SDS011;11026;50.560;17.852;2023-02-11T00:53:45;48.75;;;22.50;;
21727;SDS011;11026;50.560;17.852;2023-02-11T00:56:15;48.67;;;25.65;;
21727;SDS011;11026;50.560;17.852;2023-02-11T00:58:42;56.17;;;25.98;;
21727;SDS011;11026;50.560;17.852;2023-02-11T01:01:12;50.17;;;25.67;;
21727;SDS011;11026;50.560;17.852;2023-02-11T01:03:40;49.58;;;25.73;;
21727;SDS011;11026;50.560;17.852;2023-02-11T01:06:08;49.95;;;25.15;;
21727;SDS011;11026;50.560;17.852;2023-02-11T01:08:37;48.22;;;23.85;;
21727;SDS011;11026;50.560;17.852;2023-02-11T01:11:05;47.30;;;24.30;;
21727;SDS011;11026;50.560;17.852;2023-02-11T01:13:37;47.17;;;24.90;;
21727;SDS011;11026;50.560;17.852;2023-02-11T01:16:06;43.67;;;24.15;;
21727;SDS011;11026;50.560;17.852;2023-02-11T01:18:35;47.80;;;26.50;;
21727;SDS011;11026;50.560;17.852;2023-02-11T01:21:05;46.60;;;24.85;;
21727;SDS011;11026;50.560;17.852;2023-02-11T01:23:34;50.15;;;26.90;;
21727;SDS011;11026;50.560;17.852;2023-02-11T01:26:04;49.20;;;26.45;;
21727;SDS011;11026;50.560;17.852;2023-02-11T01:28:32;48.47;;;25.17;;
21727;SDS011;11026;50.560;17.852;2023-02-11T01:31:00;48.95;;;25.40;;
21727;SDS011;11026;50.560;17.852;2023-02-11T01:33:28;50.20;;;26.17;;
21727;SDS011;11026;50.560;17.852;2023-02-11T01:36:01;48.88;;;26.55;;
21727;SDS011;11026;50.560;17.852;2023-02-11T01:38:31;45.60;;;24.88;;
21727;SDS011;11026;50.560;17.852;2023-02-11T01:41:03;45.92;;;24.30;;
21727;SDS011;11026;50.560;17.852;2023-02-11T01:43:34;49.05;;;25.23;;
21727;SDS011;11026;50.560;17.852;2023-02-11T01:48:34;45.92;;;25.83;;
21727;SDS011;11026;50.560;17.852;2023-02-11T01:51:16;47.20;;;26.23;;
21727;SDS011;11026;50.560;17.852;2023-02-11T01:53:47;46.22;;;25.98;;
21727;SDS011;11026;50.560;17.852;2023-02-11T01:56:37;44.45;;;25.23;;
21727;SDS011;11026;50.560;17.852;2023-02-11T01:59:28;46.95;;;25.27;;
21727;SDS011;11026;50.560;17.852;2023-02-11T02:01:59;43.33;;;24.17;;
21727;SDS011;11026;50.560;17.852;2023-02-11T02:04:33;41.53;;;24.05;;
21727;SDS011;11026;50.560;17.852;2023-02-11T02:07:05;47.72;;;24.42;;
21727;SDS011;11026;50.560;17.852;2023-02-11T02:09:39;48.15;;;24.67;;
21727;SDS011;11026;50.560;17.852;2023-02-11T02:12:10;40.72;;;22.73;;
21727;SDS011;11026;50.560;17.852;2023-02-11T02:14:38;46.03;;;23.90;;
21727;SDS011;11026;50.560;17.852;2023-02-11T02:17:08;42.85;;;23.85;;
21727;SDS011;11026;50.560;17.852;2023-02-11T02:19:51;48.95;;;25.48;;
21727;SDS011;11026;50.560;17.852;2023-02-11T02:28:27;41.35;;;23.65;;
21727;SDS011;11026;50.560;17.852;2023-02-11T02:33:59;43.47;;;23.55;;
21727;SDS011;11026;50.560;17.852;2023-02-11T02:39:16;40.85;;;22.73;;
21727;SDS011;11026;50.560;17.852;2023-02-11T02:41:48;39.50;;;23.10;;
21727;SDS011;11026;50.560;17.852;2023-02-11T02:44:20;41.17;;;23.23;;
21727;SDS011;11026;50.560;17.852;2023-02-11T02:46:48;39.35;;;22.17;;
21727;SDS011;11026;50.560;17.852;2023-02-11T02:49:21;39.72;;;23.08;;
21727;SDS011;11026;50.560;17.852;2023-02-11T02:54:46;42.30;;;23.45;;
21727;SDS011;11026;50.560;17.852;2023-02-11T03:00:19;38.88;;;21.73;;
21727;SDS011;11026;50.560;17.852;2023-02-11T03:03:10;40.67;;;23.85;;
21727;SDS011;11026;50.560;17.852;2023-02-11T03:08:46;44.70;;;24.98;;
21727;SDS011;11026;50.560;17.852;2023-02-11T03:11:20;44.50;;;24.90;;
21727;SDS011;11026;50.560;17.852;2023-02-11T03:13:50;41.67;;;23.83;;
21727;SDS011;11026;50.560;17.852;2023-02-11T03:16:24;44.38;;;25.02;;
21727;SDS011;11026;50.560;17.852;2023-02-11T03:19:04;42.90;;;24.98;;
21727;SDS011;11026;50.560;17.852;2023-02-11T03:21:38;43.58;;;24.80;;
21727;SDS011;11026;50.560;17.852;2023-02-11T03:24:12;45.58;;;24.50;;
21727;SDS011;11026;50.560;17.852;2023-02-11T03:26:52;45.60;;;24.13;;
21727;SDS011;11026;50.560;17.852;2023-02-11T03:29:30;46.20;;;24.05;;
21727;SDS011;11026;50.560;17.852;2023-02-11T03:35:31;42.15;;;23.25;;
21727;SDS011;11026;50.560;17.852;2023-02-11T03:38:18;50.58;;;26.30;;
21727;SDS011;11026;50.560;17.852;2023-02-11T03:40:50;48.13;;;24.70;;
21727;SDS011;11026;50.560;17.852;2023-02-11T03:43:24;47.55;;;25.13;;
21727;SDS011;11026;50.560;17.852;2023-02-11T03:45:56;44.63;;;23.95;;
21727;SDS011;11026;50.560;17.852;2023-02-11T03:48:43;47.85;;;24.50;;
21727;SDS011;11026;50.560;17.852;2023-02-11T03:51:18;47.85;;;23.35;;
21727;SDS011;11026;50.560;17.852;2023-02-11T03:53:49;44.53;;;24.10;;
21727;SDS011;11026;50.560;17.852;2023-02-11T03:56:23;45.53;;;25.27;;
21727;SDS011;11026;50.560;17.852;2023-02-11T03:58:54;46.95;;;26.90;;
21727;SDS011;11026;50.560;17.852;2023-02-11T04:01:22;45.65;;;25.52;;
21727;SDS011;11026;50.560;17.852;2023-02-11T04:03:49;42.38;;;24.90;;
21727;SDS011;11026;50.560;17.852;2023-02-11T04:06:17;45.42;;;26.05;;
21727;SDS011;11026;50.560;17.852;2023-02-11T04:08:44;52.92;;;27.10;;
21727;SDS011;11026;50.560;17.852;2023-02-11T04:11:11;45.80;;;24.88;;
21727;SDS011;11026;50.560;17.852;2023-02-11T04:13:39;50.10;;;25.65;;
21727;SDS011;11026;50.560;17.852;2023-02-11T04:16:06;54.47;;;28.42;;
21727;SDS011;11026;50.560;17.852;2023-02-11T04:18:34;60.63;;;29.20;;
21727;SDS011;11026;50.560;17.852;2023-02-11T04:21:02;57.10;;;27.98;;
21727;SDS011;11026;50.560;17.852;2023-02-11T04:23:30;50.67;;;24.98;;
21727;SDS011;11026;50.560;17.852;2023-02-11T04:25:57;49.97;;;25.77;;
21727;SDS011;11026;50.560;17.852;2023-02-11T04:28:25;44.22;;;24.33;;
21727;SDS011;11026;50.560;17.852;2023-02-11T04:30:55;48.22;;;26.05;;
21727;SDS011;11026;50.560;17.852;2023-02-11T04:33:22;43.22;;;25.25;;
21727;SDS011;11026;50.560;17.852;2023-02-11T04:35:50;44.13;;;24.98;;
21727;SDS011;11026;50.560;17.852;2023-02-11T04:38:19;46.95;;;25.55;;
21727;SDS011;11026;50.560;17.852;2023-02-11T04:40:46;48.17;;;26.95;;
21727;SDS011;11026;50.560;17.852;2023-02-11T04:43:13;48.63;;;26.15;;
21727;SDS011;11026;50.560;17.852;2023-02-11T04:45:41;45.00;;;25.10;;
21727;SDS011;11026;50.560;17.852;2023-02-11T04:48:09;48.00;;;26.52;;
21727;SDS011;11026;50.560;17.852;2023-02-11T04:50:38;47.47;;;26.52;;
21727;SDS011;11026;50.560;17.852;2023-02-11T04:53:05;44.38;;;24.92;;
21727;SDS011;11026;50.560;17.852;2023-02-11T04:55:33;45.72;;;25.55;;
21727;SDS011;11026;50.560;17.852;2023-02-11T04:58:01;45.80;;;25.17;;
21727;SDS011;11026;50.560;17.852;2023-02-11T05:00:29;47.58;;;24.70;;
21727;SDS011;11026;50.560;17.852;2023-02-11T05:02:56;47.92;;;24.42;;
21727;SDS011;11026;50.560;17.852;2023-02-11T05:05:25;43.20;;;24.20;;
21727;SDS011;11026;50.560;17.852;2023-02-11T05:07:54;50.28;;;26.65;;
21727;SDS011;11026;50.560;17.852;2023-02-11T05:10:22;46.40;;;26.23;;
21727;SDS011;11026;50.560;17.852;2023-02-11T05:12:49;50.40;;;26.65;;
21727;SDS011;11026;50.560;17.852;2023-02-11T05:15:19;47.35;;;25.23;;
21727;SDS011;11026;50.560;17.852;2023-02-11T05:17:48;45.78;;;26.35;;
21727;SDS011;11026;50.560;17.852;2023-02-11T05:20:15;45.40;;;25.30;;
21727;SDS011;11026;50.560;17.852;2023-02-11T05:22:43;45.78;;;25.25;;
21727;SDS011;11026;50.560;17.852;2023-02-11T05:25:11;57.75;;;29.13;;
21727;SDS011;11026;50.560;17.852;2023-02-11T05:27:38;54.53;;;27.73;;
21727;SDS011;11026;50.560;17.852;2023-02-11T05:30:05;55.63;;;29.77;;
21727;SDS011;11026;50.560;17.852;2023-02-11T05:32:33;47.22;;;26.30;;
21727;SDS011;11026;50.560;17.852;2023-02-11T05:35:01;45.13;;;24.38;;
21727;SDS011;11026;50.560;17.852;2023-02-11T05:37:28;47.42;;;25.10;;
21727;SDS011;11026;50.560;17.852;2023-02-11T05:39:56;47.92;;;28.80;;
21727;SDS011;11026;50.560;17.852;2023-02-11T05:42:24;45.03;;;24.58;;
21727;SDS011;11026;50.560;17.852;2023-02-11T05:44:52;40.55;;;22.63;;
21727;SDS011;11026;50.560;17.852;2023-02-11T05:47:20;42.17;;;22.52;;
21727;SDS011;11026;50.560;17.852;2023-02-11T05:49:48;40.05;;;22.63;;
21727;SDS011;11026;50.560;17.852;2023-02-11T05:52:17;43.70;;;22.77;;
21727;SDS011;11026;50.560;17.852;2023-02-11T05:54:45;35.65;;;19.85;;
21727;SDS011;11026;50.560;17.852;2023-02-11T05:57:14;39.80;;;23.13;;
21727;SDS011;11026;50.560;17.852;2023-02-11T05:59:44;43.33;;;23.13;;
21727;SDS011;11026;50.560;17.852;2023-02-11T06:02:11;45.65;;;23.90;;
21727;SDS011;11026;50.560;17.852;2023-02-11T06:04:41;43.20;;;23.02;;
21727;SDS011;11026;50.560;17.852;2023-02-11T06:07:09;40.92;;;22.33;;
21727;SDS011;11026;50.560;17.852;2023-02-11T06:09:43;41.75;;;23.23;;
21727;SDS011;11026;50.560;17.852;2023-02-11T06:14:43;41.72;;;23.27;;
21727;SDS011;11026;50.560;17.852;2023-02-11T06:17:10;45.55;;;23.80;;
21727;SDS011;11026;50.560;17.852;2023-02-11T06:19:40;39.47;;;23.23;;
21727;SDS011;11026;50.560;17.852;2023-02-11T06:22:08;43.72;;;24.55;;
21727;SDS011;11026;50.560;17.852;2023-02-11T06:24:35;40.35;;;23.88;;
21727;SDS011;11026;50.560;17.852;2023-02-11T06:27:24;42.53;;;23.42;;
21727;SDS011;11026;50.560;17.852;2023-02-11T06:29:51;42.45;;;23.45;;
21727;SDS011;11026;50.560;17.852;2023-02-11T06:32:20;43.42;;;24.92;;
21727;SDS011;11026;50.560;17.852;2023-02-11T06:35:07;50.70;;;25.08;;
21727;SDS011;11026;50.560;17.852;2023-02-11T06:37:39;42.47;;;23.90;;
21727;SDS011;11026;50.560;17.852;2023-02-11T06:40:06;44.67;;;24.10;;
21727;SDS011;11026;50.560;17.852;2023-02-11T06:42:34;44.65;;;25.15;;
21727;SDS011;11026;50.560;17.852;2023-02-11T06:45:06;43.03;;;23.80;;
21727;SDS011;11026;50.560;17.852;2023-02-11T06:47:41;42.35;;;23.35;;
21727;SDS011;11026;50.560;17.852;2023-02-11T06:50:10;41.63;;;23.75;;
21727;SDS011;11026;50.560;17.852;2023-02-11T06:52:39;42.47;;;23.40;;
21727;SDS011;11026;50.560;17.852;2023-02-11T06:55:13;45.10;;;24.73;;
21727;SDS011;11026;50.560;17.852;2023-02-11T06:57:40;38.30;;;21.92;;
21727;SDS011;11026;50.560;17.852;2023-02-11T07:00:09;39.28;;;24.05;;
21727;SDS011;11026;50.560;17.852;2023-02-11T07:02:37;43.35;;;23.75;;
21727;SDS011;11026;50.560;17.852;2023-02-11T07:05:05;40.58;;;22.85;;
21727;SDS011;11026;50.560;17.852;2023-02-11T07:07:33;38.53;;;22.17;;
21727;SDS011;11026;50.560;17.852;2023-02-11T07:10:00;38.08;;;20.02;;
21727;SDS011;11026;50.560;17.852;2023-02-11T07:12:30;41.75;;;23.42;;
21727;SDS011;11026;50.560;17.852;2023-02-11T07:14:57;43.75;;;24.13;;
21727;SDS011;11026;50.560;17.852;2023-02-11T07:17:25;41.83;;;22.92;;
21727;SDS011;11026;50.560;17.852;2023-02-11T07:19:52;40.58;;;21.77;;
21727;SDS011;11026;50.560;17.852;2023-02-11T07:22:21;44.00;;;23.27;;
21727;SDS011;11026;50.560;17.852;2023-02-11T07:24:49;38.55;;;22.80;;
21727;SDS011;11026;50.560;17.852;2023-02-11T07:27:17;42.50;;;23.20;;
21727;SDS011;11026;50.560;17.852;2023-02-11T07:29:45;39.60;;;22.95;;
21727;SDS011;11026;50.560;17.852;2023-02-11T07:32:14;39.70;;;21.95;;
21727;SDS011;11026;50.560;17.852;2023-02-11T07:34:42;36.83;;;22.08;;
21727;SDS011;11026;50.560;17.852;2023-02-11T07:37:09;39.38;;;22.00;;
21727;SDS011;11026;50.560;17.852;2023-02-11T07:39:37;38.75;;;22.83;;
21727;SDS011;11026;50.560;17.852;2023-02-11T07:42:04;41.25;;;23.42;;
21727;SDS011;11026;50.560;17.852;2023-02-11T07:44:32;39.47;;;22.95;;
21727;SDS011;11026;50.560;17.852;2023-02-11T07:47:06;42.00;;;24.55;;
21727;SDS011;11026;50.560;17.852;2023-02-11T07:52:05;37.55;;;23.10;;
21727;SDS011;11026;50.560;17.852;2023-02-11T07:54:32;43.67;;;26.33;;
21727;SDS011;11026;50.560;17.852;2023-02-11T07:57:01;47.78;;;26.35;;
21727;SDS011;11026;50.560;17.852;2023-02-11T07:59:28;45.03;;;25.17;;
21727;SDS011;11026;50.560;17.852;2023-02-11T08:01:55;45.90;;;25.67;;
21727;SDS011;11026;50.560;17.852;2023-02-11T08:04:23;41.28;;;25.25;;
21727;SDS011;11026;50.560;17.852;2023-02-11T08:06:50;42.75;;;24.40;;
21727;SDS011;11026;50.560;17.852;2023-02-11T08:09:24;44.03;;;26.27;;
21727;SDS011;11026;50.560;17.852;2023-02-11T08:11:51;39.92;;;23.20;;
21727;SDS011;11026;50.560;17.852;2023-02-11T08:14:19;41.17;;;22.25;;
21727;SDS011;11026;50.560;17.852;2023-02-11T08:16:46;42.88;;;22.88;;
21727;SDS011;11026;50.560;17.852;2023-02-11T08:19:15;36.72;;;22.60;;
21727;SDS011;11026;50.560;17.852;2023-02-11T08:21:43;37.75;;;22.30;;
21727;SDS011;11026;50.560;17.852;2023-02-11T08:24:11;42.22;;;23.30;;
21727;SDS011;11026;50.560;17.852;2023-02-11T08:26:39;39.08;;;24.10;;
21727;SDS011;11026;50.560;17.852;2023-02-11T08:29:10;39.67;;;22.08;;
21727;SDS011;11026;50.560;17.852;2023-02-11T08:31:41;37.20;;;22.63;;
21727;SDS011;11026;50.560;17.852;2023-02-11T08:34:11;37.33;;;21.95;;
21727;SDS011;11026;50.560;17.852;2023-02-11T08:36:40;38.67;;;22.80;;
21727;SDS011;11026;50.560;17.852;2023-02-11T08:39:11;39.13;;;22.80;;
21727;SDS011;11026;50.560;17.852;2023-02-11T08:41:47;40.05;;;22.95;;
21727;SDS011;11026;50.560;17.852;2023-02-11T08:44:17;43.15;;;22.17;;
21727;SDS011;11026;50.560;17.852;2023-02-11T08:46:45;34.88;;;21.60;;
21727;SDS011;11026;50.560;17.852;2023-02-11T08:49:13;38.05;;;22.27;;
21727;SDS011;11026;50.560;17.852;2023-02-11T08:51:41;37.53;;;21.83;;
21727;SDS011;11026;50.560;17.852;2023-02-11T08:54:09;37.38;;;22.08;;
21727;SDS011;11026;50.560;17.852;2023-02-11T08:56:37;35.47;;;21.90;;
21727;SDS011;11026;50.560;17.852;2023-02-11T08:59:05;35.50;;;20.63;;
21727;SDS011;11026;50.560;17.852;2023-02-11T09:01:36;41.47;;;24.30;;
21727;SDS011;11026;50.560;17.852;2023-02-11T09:04:03;35.53;;;21.10;;
21727;SDS011;11026;50.560;17.852;2023-02-11T09:06:31;38.63;;;22.23;;
21727;SDS011;11026;50.560;17.852;2023-02-11T09:08:58;98.00;;;47.67;;
21727;SDS011;11026;50.560;17.852;2023-02-11T09:11:28;137.30;;;68.85;;
21727;SDS011;11026;50.560;17.852;2023-02-11T09:14:00;44.65;;;27.98;;
21727;SDS011;11026;50.560;17.852;2023-02-11T09:16:31;38.45;;;23.73;;
21727;SDS011;11026;50.560;17.852;2023-02-11T09:19:02;41.45;;;23.67;;
21727;SDS011;11026;50.560;17.852;2023-02-11T09:21:31;38.65;;;22.85;;
21727;SDS011;11026;50.560;17.852;2023-02-11T09:23:59;39.30;;;22.73;;
21727;SDS011;11026;50.560;17.852;2023-02-11T09:26:30;38.50;;;23.08;;
21727;SDS011;11026;50.560;17.852;2023-02-11T09:29:00;38.80;;;21.52;;
21727;SDS011;11026;50.560;17.852;2023-02-11T09:31:29;42.88;;;23.83;;
21727;SDS011;11026;50.560;17.852;2023-02-11T09:34:01;88.57;;;44.75;;
21727;SDS011;11026;50.560;17.852;2023-02-11T09:36:31;51.85;;;30.45;;
21727;SDS011;11026;50.560;17.852;2023-02-11T09:39:05;41.50;;;24.55;;
21727;SDS011;11026;50.560;17.852;2023-02-11T09:41:57;38.25;;;23.70;;
21727;SDS011;11026;50.560;17.852;2023-02-11T09:44:44;45.80;;;26.40;;
21727;SDS011;11026;50.560;17.852;2023-02-11T09:50:15;39.55;;;22.70;;
21727;SDS011;11026;50.560;17.852;2023-02-11T09:55:42;44.00;;;24.75;;
21727;SDS011;11026;50.560;17.852;2023-02-11T09:58:21;36.90;;;22.60;;
21727;SDS011;11026;50.560;17.852;2023-02-11T10:06:42;40.03;;;23.15;;
21727;SDS011;11026;50.560;17.852;2023-02-11T10:09:32;37.72;;;20.85;;
21727;SDS011;11026;50.560;17.852;2023-02-11T10:21:03;37.17;;;22.33;;
21727;SDS011;11026;50.560;17.852;2023-02-11T10:23:51;38.05;;;23.48;;
21727;SDS011;11026;50.560;17.852;2023-02-11T10:26:21;38.42;;;23.73;;
21727;SDS011;11026;50.560;17.852;2023-02-11T10:31:36;44.38;;;25.65;;
21727;SDS011;11026;50.560;17.852;2023-02-11T10:34:08;43.03;;;25.30;;
21727;SDS011;11026;50.560;17.852;2023-02-11T10:36:42;37.10;;;22.00;;
21727;SDS011;11026;50.560;17.852;2023-02-11T10:44:38;35.13;;;20.57;;
21727;SDS011;11026;50.560;17.852;2023-02-11T10:47:19;35.03;;;19.77;;
21727;SDS011;11026;50.560;17.852;2023-02-11T10:49:51;32.67;;;20.73;;
21727;SDS011;11026;50.560;17.852;2023-02-11T10:52:26;35.72;;;22.00;;
21727;SDS011;11026;50.560;17.852;2023-02-11T10:54:57;33.88;;;21.05;;
21727;SDS011;11026;50.560;17.852;2023-02-11T10:57:32;35.22;;;21.73;;
21727;SDS011;11026;50.560;17.852;2023-02-11T11:00:52;31.98;;;19.35;;
21727;SDS011;11026;50.560;17.852;2023-02-11T11:02:59;36.92;;;20.98;;
21727;SDS011;11026;50.560;17.852;2023-02-11T11:05:29;35.45;;;21.83;;
21727;SDS011;11026;50.560;17.852;2023-02-11T11:08:02;33.50;;;20.75;;
21727;SDS011;11026;50.560;17.852;2023-02-11T11:10:42;36.42;;;20.38;;
21727;SDS011;11026;50.560;17.852;2023-02-11T11:18:41;35.35;;;22.65;;
21727;SDS011;11026;50.560;17.852;2023-02-11T11:21:56;37.38;;;23.08;;
21727;SDS011;11026;50.560;17.852;2023-02-11T11:24:16;34.92;;;20.77;;
21727;SDS011;11026;50.560;17.852;2023-02-11T11:26:45;37.17;;;22.23;;
21727;SDS011;11026;50.560;17.852;2023-02-11T11:29:41;36.03;;;21.25;;
21727;SDS011;11026;50.560;17.852;2023-02-11T11:32:15;39.50;;;22.95;;
21727;SDS011;11026;50.560;17.852;2023-02-11T11:34:54;36.83;;;22.05;;
21727;SDS011;11026;50.560;17.852;2023-02-11T11:37:29;33.83;;;20.48;;
21727;SDS011;11026;50.560;17.852;2023-02-11T11:40:27;37.72;;;22.75;;
21727;SDS011;11026;50.560;17.852;2023-02-11T11:45:54;32.47;;;20.10;;
21727;SDS011;11026;50.560;17.852;2023-02-11T11:48:31;32.90;;;20.27;;
21727;SDS011;11026;50.560;17.852;2023-02-11T11:51:04;33.25;;;20.48;;
21727;SDS011;11026;50.560;17.852;2023-02-11T11:56:51;36.53;;;21.63;;
21727;SDS011;11026;50.560;17.852;2023-02-11T11:59:26;41.55;;;24.02;;
21727;SDS011;11026;50.560;17.852;2023-02-11T12:02:00;35.42;;;21.58;;
21727;SDS011;11026;50.560;17.852;2023-02-11T12:04:38;30.77;;;19.90;;
21727;SDS011;11026;50.560;17.852;2023-02-11T12:13:00;29.70;;;18.55;;
21727;SDS011;11026;50.560;17.852;2023-02-11T12:27:13;39.83;;;21.33;;
21727;SDS011;11026;50.560;17.852;2023-02-11T12:29:55;34.47;;;20.10;;
21727;SDS011;11026;50.560;17.852;2023-02-11T12:32:49;32.17;;;19.40;;
21727;SDS011;11026;50.560;17.852;2023-02-11T12:35:21;31.67;;;19.00;;
21727;SDS011;11026;50.560;17.852;2023-02-11T12:40:50;37.00;;;19.65;;
21727;SDS011;11026;50.560;17.852;2023-02-11T12:49:04;40.50;;;22.65;;
21727;SDS011;11026;50.560;17.852;2023-02-11T12:54:57;34.33;;;20.40;;
21727;SDS011;11026;50.560;17.852;2023-02-11T12:57:31;37.25;;;20.92;;
21727;SDS011;11026;50.560;17.852;2023-02-11T13:00:04;37.78;;;21.48;;
21727;SDS011;11026;50.560;17.852;2023-02-11T13:08:11;35.90;;;21.75;;
21727;SDS011;11026;50.560;17.852;2023-02-11T13:10:53;33.78;;;20.70;;
21727;SDS011;11026;50.560;17.852;2023-02-11T13:16:11;38.65;;;22.10;;
21727;SDS011;11026;50.560;17.852;2023-02-11T13:35:28;37.47;;;21.80;;
21727;SDS011;11026;50.560;17.852;2023-02-11T13:38:05;32.35;;;20.42;;
21727;SDS011;11026;50.560;17.852;2023-02-11T13:40:45;37.63;;;23.00;;
21727;SDS011;11026;50.560;17.852;2023-02-11T13:43:30;37.00;;;21.75;;
21727;SDS011;11026;50.560;17.852;2023-02-11T13:46:03;38.63;;;22.38;;
21727;SDS011;11026;50.560;17.852;2023-02-11T13:48:37;40.40;;;23.20;;
21727;SDS011;11026;50.560;17.852;2023-02-11T13:51:13;35.35;;;21.75;;
21727;SDS011;11026;50.560;17.852;2023-02-11T13:56:34;34.78;;;21.33;;
21727;SDS011;11026;50.560;17.852;2023-02-11T13:59:50;35.63;;;20.50;;
21727;SDS011;11026;50.560;17.852;2023-02-11T14:16:16;37.00;;;21.15;;
21727;SDS011;11026;50.560;17.852;2023-02-11T14:19:02;32.83;;;18.73;;
21727;SDS011;11026;50.560;17.852;2023-02-11T14:21:33;34.42;;;22.10;;
21727;SDS011;11026;50.560;17.852;2023-02-11T14:30:25;33.17;;;19.70;;
21727;SDS011;11026;50.560;17.852;2023-02-11T14:38:13;37.03;;;21.63;;
21727;SDS011;11026;50.560;17.852;2023-02-11T14:43:38;33.10;;;22.38;;
21727;SDS011;11026;50.560;17.852;2023-02-11T14:46:17;32.83;;;22.07;;
21727;SDS011;11026;50.560;17.852;2023-02-11T14:48:48;39.78;;;22.27;;
21727;SDS011;11026;50.560;17.852;2023-02-11T14:51:23;38.70;;;23.17;;
21727;SDS011;11026;50.560;17.852;2023-02-11T14:53:58;40.38;;;23.98;;
21727;SDS011;11026;50.560;17.852;2023-02-11T14:56:46;40.97;;;24.13;;
21727;SDS011;11026;50.560;17.852;2023-02-11T14:59:53;40.03;;;24.88;;
21727;SDS011;11026;50.560;17.852;2023-02-11T15:07:47;39.85;;;23.92;;
21727;SDS011;11026;50.560;17.852;2023-02-11T15:10:20;39.83;;;25.05;;
21727;SDS011;11026;50.560;17.852;2023-02-11T15:13:02;41.85;;;25.63;;
21727;SDS011;11026;50.560;17.852;2023-02-11T15:15:31;43.45;;;26.75;;
21727;SDS011;11026;50.560;17.852;2023-02-11T15:18:03;43.08;;;26.98;;
21727;SDS011;11026;50.560;17.852;2023-02-11T15:20:31;45.88;;;27.10;;
21727;SDS011;11026;50.560;17.852;2023-02-11T15:23:01;49.63;;;30.02;;
21727;SDS011;11026;50.560;17.852;2023-02-11T15:25:41;50.55;;;29.30;;
21727;SDS011;11026;50.560;17.852;2023-02-11T15:28:20;52.95;;;32.03;;
21727;SDS011;11026;50.560;17.852;2023-02-11T15:33:30;56.63;;;33.30;;
21727;SDS011;11026;50.560;17.852;2023-02-11T15:35:59;51.60;;;30.17;;
21727;SDS011;11026;50.560;17.852;2023-02-11T15:38:34;59.78;;;33.60;;
21727;SDS011;11026;50.560;17.852;2023-02-11T15:41:04;62.47;;;35.60;;
21727;SDS011;11026;50.560;17.852;2023-02-11T15:43:45;60.47;;;34.97;;
21727;SDS011;11026;50.560;17.852;2023-02-11T15:46:23;70.80;;;37.88;;
21727;SDS011;11026;50.560;17.852;2023-02-11T15:49:01;76.05;;;41.60;;
21727;SDS011;11026;50.560;17.852;2023-02-11T15:51:32;72.53;;;41.90;;
21727;SDS011;11026;50.560;17.852;2023-02-11T15:54:05;75.75;;;40.85;;
21727;SDS011;11026;50.560;17.852;2023-02-11T15:56:44;74.80;;;39.72;;
21727;SDS011;11026;50.560;17.852;2023-02-11T15:59:28;80.50;;;44.95;;
21727;SDS011;11026;50.560;17.852;2023-02-11T16:02:12;81.72;;;41.78;;
21727;SDS011;11026;50.560;17.852;2023-02-11T16:04:58;77.63;;;42.60;;
21727;SDS011;11026;50.560;17.852;2023-02-11T16:07:39;90.25;;;53.28;;
21727;SDS011;11026;50.560;17.852;2023-02-11T16:15:45;76.43;;;44.80;;
21727;SDS011;11026;50.560;17.852;2023-02-11T16:18:29;79.85;;;45.17;;
21727;SDS011;11026;50.560;17.852;2023-02-11T16:21:14;79.90;;;44.42;;
21727;SDS011;11026;50.560;17.852;2023-02-11T16:23:50;73.20;;;42.38;;
21727;SDS011;11026;50.560;17.852;2023-02-11T16:26:31;78.28;;;45.53;;
21727;SDS011;11026;50.560;17.852;2023-02-11T16:29:06;85.68;;;46.78;;
21727;SDS011;11026;50.560;17.852;2023-02-11T16:31:43;79.47;;;44.67;;
21727;SDS011;11026;50.560;17.852;2023-02-11T16:34:18;86.78;;;46.20;;
21727;SDS011;11026;50.560;17.852;2023-02-11T16:36:49;88.90;;;47.63;;
21727;SDS011;11026;50.560;17.852;2023-02-11T16:39:21;87.93;;;46.45;;
21727;SDS011;11026;50.560;17.852;2023-02-11T16:41:49;83.40;;;46.53;;
21727;SDS011;11026;50.560;17.852;2023-02-11T16:44:18;87.57;;;46.42;;
21727;SDS011;11026;50.560;17.852;2023-02-11T16:46:46;86.97;;;44.90;;
21727;SDS011;11026;50.560;17.852;2023-02-11T16:49:22;88.53;;;46.03;;
21727;SDS011;11026;50.560;17.852;2023-02-11T16:51:59;86.43;;;47.60;;
21727;SDS011;11026;50.560;17.852;2023-02-11T16:54:29;82.93;;;43.38;;
21727;SDS011;11026;50.560;17.852;2023-02-11T16:56:57;92.15;;;46.85;;
21727;SDS011;11026;50.560;17.852;2023-02-11T16:59:26;85.72;;;46.20;;
21727;SDS011;11026;50.560;17.852;2023-02-11T17:01:54;94.43;;;49.92;;
21727;SDS011;11026;50.560;17.852;2023-02-11T17:04:26;91.30;;;47.05;;
21727;SDS011;11026;50.560;17.852;2023-02-11T17:06:57;93.25;;;49.92;;
21727;SDS011;11026;50.560;17.852;2023-02-11T17:09:26;94.75;;;46.00;;
21727;SDS011;11026;50.560;17.852;2023-02-11T17:11:57;90.25;;;47.30;;
21727;SDS011;11026;50.560;17.852;2023-02-11T17:14:27;90.32;;;48.83;;
21727;SDS011;11026;50.560;17.852;2023-02-11T17:16:55;89.60;;;50.08;;
21727;SDS011;11026;50.560;17.852;2023-02-11T17:19:24;100.13;;;52.97;;
21727;SDS011;11026;50.560;17.852;2023-02-11T17:21:52;90.90;;;46.58;;
21727;SDS011;11026;50.560;17.852;2023-02-11T17:24:20;84.60;;;47.90;;
21727;SDS011;11026;50.560;17.852;2023-02-11T17:26:50;90.35;;;48.20;;
21727;SDS011;11026;50.560;17.852;2023-02-11T17:29:21;89.47;;;46.70;;